Flight Track Log - Related Links

Times and Time Zones

All times are in EST time to prevent confusion due to time zone crossing. See the CHQ5349 flight status page for this flight to view local times or setup timezone preferences in your user account.

Time Position Orientation Groundspeed Altitude Reporting Facility
EST Latitude Longitude Course Direction KTS MPH feet Rate Location/Type
Tue 04:44:40 PM 41.1000 -73.8000 276° West 225 259 3,200  Level New York TRACON
Tue 04:46:00 PM 41.0833 -73.9784 270° West  Level FlightAware Approximate
Tue 04:46:38 PM 41.1606 -73.9486 298° West 246 283 9,400  Level New York Center
Tue 04:47:00 PM 41.0877 -74.0731 276° West  Level FlightAware Approximate
Tue 04:47:38 PM 41.1878 -74.0217 296° West 246 283 11,600  Level New York Center
Tue 04:48:00 PM 41.0950 -74.1677 276° West  Level FlightAware Approximate
Tue 04:48:38 PM 41.2161 -74.1194 291° West 254 292 13,500  Level New York Center
Tue 04:49:00 PM 41.1022 -74.2623 276° West  Level FlightAware Approximate
Tue 04:49:38 PM 41.2094 -74.2047 264° West 259 298 14,100  Level New York Center
Tue 04:50:38 PM 41.1939 -74.3086 259° West 259 298 15,800 950 Climbing New York Center
Tue 04:51:38 PM 41.1808 -74.3989 259° West 269 310 16,000 100 Climbing New York Center
Tue 04:52:38 PM 41.1650 -74.5056 259° West 274 315 16,000 50 Level New York Center
Tue 04:53:38 PM 41.2172 -74.5692 318° Northwest 239 275 16,100 100 Climbing New York Center
Tue 04:54:38 PM 41.2897 -74.6394 324° Northwest 275 316 16,200 550 Climbing New York Center
Tue 04:55:38 PM 41.3458 -74.7117 316° Northwest 305 351 17,200 1,200 Climbing New York Center
Tue 04:56:38 PM 41.4006 -74.8200 304° West 317 365 18,600 1,100 Climbing New York Center
Tue 04:57:38 PM 41.4431 -74.9111 302° West 327 376 19,400 700 Climbing New York Center
Tue 04:58:38 PM 41.4975 -75.0169 305° West 339 390 20,000 700 Climbing New York Center
Tue 04:59:38 PM 41.5539 -75.1314 303° West 355 409 20,800 1,000 Climbing New York Center
Tue 05:00:38 PM 41.6081 -75.2431 303° West 361 415 22,000 1,150 Climbing New York Center
Tue 05:01:38 PM 41.6642 -75.3525 304° West 361 415 23,100 1,150 Climbing New York Center
Tue 05:02:38 PM 41.7075 -75.4694 296° West 361 415 24,300 1,200 Climbing New York Center
Tue 05:03:38 PM 41.7339 -75.5906 286° West 349 402 25,500 1,150 Climbing New York Center
Tue 05:04:38 PM 41.7600 -75.7150 286° West 344 396 26,600 900 Climbing New York Center
Tue 05:05:38 PM 41.7842 -75.8336 285° West 344 396 27,300 650 Climbing New York Center
Tue 05:06:38 PM 41.8122 -75.9581 287° West 344 396 27,900 650 Climbing New York Center
Tue 05:07:38 PM 41.8394 -76.0967 285° West 344 396 28,600 600 Climbing New York Center
Tue 05:08:38 PM 41.8669 -76.2242 286° West 349 402 29,100 550 Climbing New York Center
Tue 05:09:38 PM 41.8942 -76.3519 286° West 349 402 29,700 550 Climbing New York Center
Tue 05:10:38 PM 41.9181 -76.4653 286° West 349 402 30,200 750 Climbing New York Center
Tue 05:11:38 PM 41.9433 -76.5903 285° West 354 407 31,200 1,294 Climbing New York Center
Tue 05:14:02 PM 42.0061 -76.8825 286° West 338 389 34,600 1,252 Climbing Cleveland Center
Tue 05:15:04 PM 42.0283 -76.9944 285° West 313 360 35,500 677 Climbing Cleveland Center
Tue 05:16:06 PM 42.0525 -77.1114 286° West 320 368 36,000 242 Climbing Cleveland Center
Tue 05:17:08 PM 42.0806 -77.2519 285° West 324 373 36,000  Level Cleveland Center
Tue 05:18:10 PM 42.1033 -77.3689 285° West 324 373 36,000  Level Cleveland Center
Tue 05:19:12 PM 42.1275 -77.4872 285° West 324 373 36,000  Level Cleveland Center
Tue 05:20:15 PM 42.1511 -77.6061 285° West 327 376 36,000  Level Cleveland Center
Tue 05:21:17 PM 42.1744 -77.7258 285° West 327 376 36,000  Level Cleveland Center
Tue 05:22:19 PM 42.1983 -77.8456 285° West 327 376 36,000  Level Cleveland Center
Tue 05:23:21 PM 42.2217 -77.9656 285° West 329 379 36,000  Level Cleveland Center
Tue 05:24:23 PM 42.2489 -78.1106 284° West 329 379 36,000  Level Cleveland Center
Tue 05:25:25 PM 42.2722 -78.2308 285° West 330 380 36,000  Level Cleveland Center
Tue 05:26:27 PM 42.2953 -78.3533 284° West 331 381 36,000  Level Cleveland Center
Tue 05:27:29 PM 42.3183 -78.4744 284° West 332 382 36,000  Level Cleveland Center
Tue 05:28:31 PM 42.3408 -78.5961 284° West 332 382 36,000  Level Cleveland Center
Tue 05:29:33 PM 42.3633 -78.7178 284° West 332 382 36,000  Level Cleveland Center
Tue 05:30:36 PM 42.3900 -78.8628 284° West 332 382 36,000  Level Cleveland Center
Tue 05:31:38 PM 42.4053 -78.9864 280° West 325 374 36,000  Level Cleveland Center
Tue 05:32:40 PM 42.4133 -79.1061 275° West 320 368 36,000  Level Cleveland Center
Tue 05:33:42 PM 42.4197 -79.2267 274° West 321 369 36,000  Level Cleveland Center
Tue 05:34:44 PM 42.4275 -79.3447 275° West 321 369 36,000  Level Cleveland Center
Tue 05:35:46 PM 42.4364 -79.4628 276° West 320 368 36,000  Level Cleveland Center
Tue 05:36:48 PM 42.4450 -79.6053 275° West 320 368 36,000  Level Cleveland Center
Tue 05:37:50 PM 42.4522 -79.7256 275° West 322 371 36,000  Level Cleveland Center
Tue 05:38:53 PM 42.4597 -79.8608 274° West 325 374 36,000  Level Cleveland Center
Tue 05:39:55 PM 42.4664 -79.9731 275° West 327 376 36,000  Level Cleveland Center
Tue 05:40:57 PM 42.4722 -80.0950 274° West 328 377 36,000  Level Cleveland Center
Tue 05:41:59 PM 42.4808 -80.2389 275° West 328 377 36,000  Level Cleveland Center
Tue 05:43:01 PM 42.4872 -80.3636 274° West 328 377 36,000  Level Cleveland Center
Tue 05:44:03 PM 42.4947 -80.4856 275° West 326 375 36,000  Level Cleveland Center
Tue 05:45:05 PM 42.5000 -80.6092 273° West 326 375 36,000  Level Cleveland Center
Tue 05:46:07 PM 42.5064 -80.7344 274° West 331 381 36,000  Level Cleveland Center
Tue 05:47:09 PM 42.5100 -80.8583 272° West 331 381 36,000  Level Cleveland Center
Tue 05:48:12 PM 42.5156 -81.0039 273° West 331 381 36,000  Level Cleveland Center
Tue 05:49:14 PM 42.5181 -81.1294 272° West 330 380 36,000  Level Cleveland Center
Tue 05:50:16 PM 42.5222 -81.2536 273° West 330 380 36,000  Level Cleveland Center
Tue 05:51:18 PM 42.5342 -81.3775 277° West 330 380 36,000  Level Cleveland Center
Tue 05:52:20 PM 42.5494 -81.5019 280° West 330 380 36,000  Level Cleveland Center
Tue 05:53:22 PM 42.5628 -81.6264 278° West 330 380 36,000  Level Cleveland Center
Tue 05:54:24 PM 42.5792 -81.7711 279° West 331 381 36,000  Level Cleveland Center
Tue 05:55:26 PM 42.5925 -81.8922 279° West 331 381 36,000  Level Cleveland Center
Tue 05:56:28 PM 42.6061 -82.0175 278° West 335 386 36,000  Level Cleveland Center
Tue 05:57:31 PM 42.6194 -82.1433 278° West 337 388 36,000  Level Cleveland Center
Tue 05:58:33 PM 42.6331 -82.2703 278° West 338 389 36,000  Level Cleveland Center
Tue 05:59:35 PM 42.6492 -82.4214 278° West 340 391 36,000  Level Cleveland Center
Tue 06:00:37 PM 42.6617 -82.5486 278° West 340 391 36,000  Level Cleveland Center
Tue 06:01:39 PM 42.6756 -82.6767 278° West 341 392 36,000  Level Cleveland Center
Tue 06:02:41 PM 42.6886 -82.8036 278° West 341 392 36,000  Level Cleveland Center
Tue 06:03:43 PM 42.7014 -82.9325 278° West 342 394 36,000  Level Cleveland Center
Tue 06:04:45 PM 42.7183 -83.0858 279° West 343 395 36,000  Level Cleveland Center
Tue 06:05:47 PM 42.7336 -83.2161 279° West 346 398 36,000  Level Cleveland Center
Tue 06:06:50 PM 42.7478 -83.3450 279° West 349 402 36,000 -192 Level Cleveland Center
Tue 06:07:52 PM 42.7639 -83.4758 280° West 351 404 35,600 -484 Descending Cleveland Center
Tue 06:08:54 PM 42.7778 -83.6050 278° West 350 403 35,000 -629 Descending Cleveland Center
Tue 06:09:56 PM 42.7950 -83.7603 279° West 350 403 34,300 -629 Descending Cleveland Center
Tue 06:10:58 PM 42.8089 -83.8886 278° West 348 400 33,700 -581 Descending Cleveland Center
Tue 06:12:00 PM 42.8117 -84.0192 272° West 349 402 33,100 -581 Descending Cleveland Center
Tue 06:13:02 PM 42.8089 -84.1517 268° West 349 402 32,500 -532 Descending Cleveland Center
Tue 06:14:04 PM 42.8083 -84.2861 270° West 353 406 32,000 -242 Descending Cleveland Center
Tue 06:15:06 PM 42.8067 -84.4489 269° West 356 410 32,000  Level Cleveland Center
Tue 06:16:08 PM 42.8039 -84.5889 268° West 364 419 32,000  Level Cleveland Center
Tue 06:17:11 PM 42.8017 -84.7272 269° West 365 420 32,000  Level Cleveland Center
Tue 06:18:13 PM 42.7994 -84.8653 269° West 365 420 32,000  Level Cleveland Center
Tue 06:19:15 PM 42.7969 -85.0033 269° West 365 420 32,000  Level Cleveland Center
Tue 06:20:17 PM 42.7942 -85.1439 269° West 366 421 32,000 -194 Level Cleveland Center
Tue 06:21:19 PM 42.7903 -85.3106 268° West 367 422 31,600 -1,984 Descending Cleveland Center
Tue 06:22:21 PM 42.7878 -85.4508 269° West 367 422 27,900 -3,000 Descending Cleveland Center
Tue 06:23:23 PM 42.7694 -85.5933 260° West 384 442 25,400 -1,548 Descending Cleveland Center
Tue 06:24:25 PM 42.7431 -85.7386 256° West 389 448 24,700 -629 Descending Cleveland Center
Tue 06:25:27 PM 42.7169 -85.8831 256° West 389 448 24,100 -720 Descending Cleveland Center
Tue 06:26:30 PM 42.6914 -86.0250 256° West 388 447 23,200 -1,488 Descending Cleveland Center
Tue 06:27:32 PM 42.6644 -86.1658 255° West 387 445 21,000 -1,548 Descending Cleveland Center
Tue 06:28:34 PM 42.6356 -86.3242 256° West 361 415 20,000 -426 Descending Cleveland Center
Tue 06:29:53 PM 42.6078 -86.4694 255° West 334 384 20,000 -213 Level Chicago Center
Tue 06:30:55 PM 42.5839 -86.5953 256° West 342 394 19,500 -1,452 Descending Chicago Center
Tue 06:31:57 PM 42.5583 -86.7375 256° West 348 400 17,000 -2,613 Descending Chicago Center
Tue 06:32:59 PM 42.5231 -86.8647 249° West 335 386 14,100 -2,661 Descending Chicago Center
Tue 06:34:01 PM 42.4911 -86.9803 249° West 330 380 11,500 -1,968 Descending Chicago Center
Tue 06:35:04 PM 42.4589 -87.0917 249° West 320 368 10,000 -720 Descending Chicago Center
Tue 06:36:06 PM 42.4303 -87.2006 250° West 309 356 10,000  Level Chicago Center
Tue 06:37:08 PM 42.3933 -87.3028 244° Southwest 306 352 10,000 -339 Level Chicago Center
Tue 06:38:10 PM 42.3011 -87.3269 191° South 287 330 9,300 -871 Descending Chicago Center
Tue 06:39:12 PM 42.2250 -87.3442 190° South 278 320 8,200 -1,113 Descending Chicago Center
Tue 06:40:14 PM 42.1464 -87.3628 190° South 268 308 7,000 -919 Descending Chicago Center
Tue 06:41:16 PM 42.0747 -87.3797 190° South 262 302 6,300 -677 Descending Chicago Center
Tue 06:42:18 PM 42.0197 -87.4319 215° Southwest 237 273 5,600 -624 Descending Chicago Center
Tue 06:43:21 PM 41.9814 -87.5064 235° Southwest 242 278 5,000 -290 Descending Chicago Center
Tue 06:44:22 PM 41.9833 -87.5969 272° West 223 257 5,000 -341 Level Chicago Center
Tue 06:45:24 PM 41.9836 -87.6628 270° West 185 213 4,300 -871 Descending Chicago Center
Tue 06:46:26 PM 41.9828 -87.7286 269° West 178 205 3,200 -1,113 Descending Chicago Center
Tue 06:47:28 PM 41.9836 -87.8006 271° West 180 207 2,000 -968 Descending Chicago Center
Tue 06:48:30 PM 41.9831 -87.8578 269° West 159 183 1,200 -581 Descending Chicago Center
Tue 06:49:32 PM 41.9831 -87.9072 270° West 148 170 800 -387 Descending Chicago Center

Login

Don't have an account? Register now (free) for customized features, flight alerts, and more!